Time;durP1;ratioP1;P1;durP2;ratioP2;P2;SDS_P1;SDS_P2;PMS_P1;PMS_P2;Temp;Humidity;BMP_temperature;BMP_pressure;BME280_temperature;BME280_humidity;BME280_pressure;Samples;Min_cycle;Max_cycle;Signal;HPM_P1;HPM_P2
2023/09/22 00:00:14;;;;;;;23.63;15.40;;;14.60;99.90;;;;;;6218339;22;20402;-91
2023/09/22 00:02:42;;;;;;;24.90;15.20;;;14.50;99.90;;;;;;6216433;22;20399;-91
2023/09/22 00:05:12;;;;;;;24.20;15.27;;;14.50;99.90;;;;;;6218244;22;20453;-93
2023/09/22 00:07:37;;;;;;;33.63;18.10;;;14.50;99.90;;;;;;6217443;22;20368;-92
2023/09/22 00:10:04;;;;;;;29.63;15.82;;;14.60;99.90;;;;;;6216366;22;20713;-93
2023/09/22 00:12:31;;;;;;;35.72;17.48;;;14.50;99.90;;;;;;6218299;22;20693;-93
2023/09/22 00:15:01;;;;;;;24.17;14.60;;;14.80;99.90;;;;;;6215885;22;20458;-93
2023/09/22 00:17:27;;;;;;;17.77;13.30;;;14.70;99.90;;;;;;6218199;22;20681;-92
2023/09/22 00:19:54;;;;;;;22.80;13.93;;;14.80;99.90;;;;;;6216429;22;20808;-91
2023/09/22 00:22:20;;;;;;;33.05;16.98;;;14.70;99.90;;;;;;6217967;22;20368;-92
2023/09/22 00:24:45;;;;;;;33.83;18.08;;;14.70;99.90;;;;;;6216768;22;20399;-92
2023/09/22 00:27:11;;;;;;;28.20;16.02;;;14.80;99.90;;;;;;6217153;22;20368;-92
2023/09/22 00:29:37;;;;;;;27.07;15.50;;;14.70;99.90;;;;;;6217780;22;20372;-93
2023/09/22 00:32:04;;;;;;;34.58;17.13;;;14.80;99.90;;;;;;6216743;22;20436;-93
2023/09/22 00:34:32;;;;;;;31.52;16.63;;;14.50;99.90;;;;;;6218476;22;20368;-93
2023/09/22 00:36:58;;;;;;;39.15;18.63;;;14.60;99.90;;;;;;6216189;22;20940;-92
2023/09/22 00:39:23;;;;;;;49.03;20.90;;;14.60;99.90;;;;;;6217735;22;20369;-92
2023/09/22 00:41:49;;;;;;;55.67;22.97;;;14.80;99.90;;;;;;6216644;22;20368;-92
2023/09/22 00:44:15;;;;;;;44.85;21.13;;;14.60;99.90;;;;;;6217340;22;20399;-91
2023/09/22 00:46:41;;;;;;;48.78;22.10;;;14.60;99.90;;;;;;6217498;22;20458;-91
2023/09/22 00:49:08;;;;;;;57.20;23.35;;;14.90;99.90;;;;;;6216020;22;20693;-93
2023/09/22 00:51:35;;;;;;;48.70;22.50;;;14.60;99.90;;;;;;6218249;22;20398;-91
2023/09/22 00:54:01;;;;;;;49.63;20.88;;;14.90;99.90;;;;;;6215584;22;20372;-92
2023/09/22 00:56:28;;;;;;;59.25;24.08;;;14.80;99.90;;;;;;6217950;22;20396;-91
2023/09/22 00:58:54;;;;;;;67.70;25.35;;;14.80;99.90;;;;;;6215660;22;20437;-92
2023/09/22 01:01:21;;;;;;;64.55;25.58;;;14.80;99.90;;;;;;6217783;22;20912;-92
2023/09/22 01:03:53;;;;;;;79.50;27.73;;;14.90;99.90;;;;;;6216645;22;20391;-91
2023/09/22 01:06:19;;;;;;;64.63;26.60;;;14.60;99.90;;;;;;6216045;22;21113;-92
2023/09/22 01:08:45;;;;;;;72.07;27.35;;;14.80;99.90;;;;;;6217307;22;20849;-92
2023/09/22 01:11:11;;;;;;;57.20;25.40;;;14.90;99.90;;;;;;6215493;22;20430;-93
2023/09/22 01:13:37;;;;;;;64.32;26.80;;;14.80;99.90;;;;;;6218058;22;20739;-93
2023/09/22 01:16:03;;;;;;;67.90;27.17;;;15.10;99.90;;;;;;6215063;22;20455;-91
2023/09/22 01:18:30;;;;;;;87.53;30.05;;;14.70;99.90;;;;;;6217428;22;20369;-92
2023/09/22 01:20:58;;;;;;;72.75;28.00;;;14.90;99.90;;;;;;6216128;22;20372;-91
2023/09/22 01:23:24;;;;;;;65.27;28.30;;;14.70;99.90;;;;;;6216115;22;20739;-92
2023/09/22 01:25:50;;;;;;;72.38;30.58;;;14.60;99.90;;;;;;6217060;22;20395;-91
2023/09/22 01:28:16;;;;;;;54.08;27.90;;;14.70;99.90;;;;;;6241271;22;20414;-94
2023/09/22 01:30:42;;;;;;;64.43;30.67;;;14.90;99.90;;;;;;6217645;22;20361;-92
2023/09/22 01:33:08;;;;;;;78.20;32.22;;;14.80;99.90;;;;;;6215288;22;20364;-92
2023/09/22 01:35:35;;;;;;;71.28;33.42;;;14.50;99.90;;;;;;6217647;22;20370;-91
2023/09/22 01:38:16;;;;;;;84.05;34.97;;;15.00;99.90;;;;;;6215609;22;20356;-91
2023/09/22 01:40:43;;;;;;;73.97;34.97;;;15.00;99.90;;;;;;6216561;22;20373;-91
2023/09/22 01:43:09;;;;;;;77.25;34.15;;;15.10;99.90;;;;;;6216562;22;20371;-92
2023/09/22 01:45:35;;;;;;;95.40;36.60;;;14.80;99.90;;;;;;6215510;22;20446;-90
2023/09/22 01:48:01;;;;;;;74.30;34.67;;;15.20;99.90;;;;;;6217334;22;20364;-92
2023/09/22 01:50:27;;;;;;;73.25;34.88;;;14.90;99.90;;;;;;6214832;22;20376;-91
2023/09/22 01:52:53;;;;;;;78.97;35.77;;;15.00;99.90;;;;;;6217654;22;20369;-91
2023/09/22 01:55:20;;;;;;;70.30;34.08;;;15.00;99.90;;;;;;6214856;22;20368;-90
2023/09/22 01:57:49;;;;;;;69.97;34.42;;;14.80;99.90;;;;;;6216764;22;20356;-93
2023/09/22 02:00:16;;;;;;;73.55;34.97;;;15.10;99.90;;;;;;6216667;22;20368;-90
2023/09/22 02:02:43;;;;;;;69.78;34.92;;;14.80;99.90;;;;;;6215360;22;20375;-93
2023/09/22 02:05:14;;;;;;;69.57;33.70;;;14.90;99.90;;;;;;6216881;22;20399;-91
2023/09/22 02:07:40;;;;;;;61.57;32.27;;;14.80;99.90;;;;;;6214859;22;20411;-91
2023/09/22 02:10:09;;;;;;;90.28;36.47;;;14.90;99.90;;;;;;6216490;22;20407;-91
2023/09/22 02:12:36;;;;;;;70.82;34.45;;;14.80;99.90;;;;;;6214887;22;20362;-92
2023/09/22 02:15:01;;;;;;;65.00;33.20;;;14.90;99.90;;;;;;6215981;22;21183;-91
2023/09/22 02:17:27;;;;;;;85.82;34.75;;;14.80;99.90;;;;;;6215947;22;20384;-92
2023/09/22 02:19:53;;;;;;;71.80;32.97;;;14.90;99.90;;;;;;6215774;22;20364;-92
2023/09/22 02:22:19;;;;;;;64.80;31.17;;;14.70;99.90;;;;;;6217009;22;20694;-92
2023/09/22 02:24:45;;;;;;;89.53;33.63;;;15.00;99.90;;;;;;6214769;22;20392;-92
2023/09/22 02:27:10;;;;;;;76.90;32.10;;;14.60;99.90;;;;;;6216887;22;20377;-92
2023/09/22 02:29:36;;;;;;;70.23;30.53;;;14.80;99.90;;;;;;6214640;22;20396;-91
2023/09/22 02:32:02;;;;;;;87.33;32.53;;;15.00;99.90;;;;;;6216969;22;20437;-92
2023/09/22 02:34:28;;;;;;;137.27;33.67;;;14.60;99.90;;;;;;6215170;22;20357;-91
2023/09/22 02:36:53;;;;;;;94.20;32.13;;;14.80;99.90;;;;;;6216001;22;20798;-94
2023/09/22 02:39:19;;;;;;;71.40;29.93;;;14.50;99.90;;;;;;6216291;22;20408;-92
2023/09/22 02:41:45;;;;;;;76.20;29.35;;;14.60;99.90;;;;;;6214956;22;20360;-93
2023/09/22 02:44:12;;;;;;;84.20;30.13;;;14.70;99.90;;;;;;6216888;22;20399;-91
2023/09/22 02:46:37;;;;;;;127.88;32.33;;;14.40;99.90;;;;;;6214718;22;20971;-92
2023/09/22 02:49:03;;;;;;;84.23;28.40;;;14.60;99.90;;;;;;6216795;22;20412;-92
2023/09/22 02:51:29;;;;;;;199.07;35.22;;;14.60;99.90;;;;;;6214693;22;20380;-93
2023/09/22 02:53:55;;;;;;;66.78;25.33;;;14.30;99.90;;;;;;6216541;22;20411;-93
2023/09/22 02:56:21;;;;;;;96.85;27.15;;;14.80;99.90;;;;;;6215687;22;20394;-92
2023/09/22 02:58:48;;;;;;;118.38;28.90;;;14.40;99.90;;;;;;6215439;22;20373;-94
2023/09/22 03:01:14;;;;;;;90.72;27.55;;;14.60;99.90;;;;;;6216643;22;20404;-92
2023/09/22 03:03:43;;;;;;;196.83;31.37;;;14.50;99.90;;;;;;6214419;22;20403;-93
2023/09/22 03:06:12;;;;;;;82.78;24.58;;;14.50;99.90;;;;;;6216754;22;20376;-93
2023/09/22 03:08:41;;;;;;;108.55;25.05;;;14.20;99.90;;;;;;6214298;22;20860;-93
2023/09/22 03:11:07;;;;;;;89.28;25.08;;;14.50;99.90;;;;;;6216637;22;20438;-93
2023/09/22 03:13:33;;;;;;;66.68;22.45;;;14.10;99.90;;;;;;6215430;22;20364;-94
2023/09/22 03:16:00;;;;;;;71.57;21.88;;;14.20;99.90;;;;;;6215383;22;20436;-91
2023/09/22 03:18:26;;;;;;;66.78;22.08;;;14.00;99.90;;;;;;6216497;22;20732;-93
2023/09/22 03:20:52;;;;;;;69.27;21.70;;;14.30;99.90;;;;;;6214394;22;20365;-92
2023/09/22 03:23:17;;;;;;;65.43;21.17;;;14.10;99.90;;;;;;6216664;22;20362;-91
2023/09/22 03:25:44;;;;;;;73.82;21.58;;;14.10;99.90;;;;;;6215154;22;20391;-92
2023/09/22 03:28:10;;;;;;;69.03;20.70;;;14.20;99.90;;;;;;6218789;22;20375;-93
2023/09/22 03:30:36;;;;;;;52.33;19.33;;;14.30;99.90;;;;;;6216812;22;20376;-92
2023/09/22 03:33:02;;;;;;;55.38;20.00;;;14.20;99.90;;;;;;6218457;22;20367;-93
2023/09/22 03:35:27;;;;;;;59.75;19.80;;;13.90;99.90;;;;;;6218426;22;20832;-93
2023/09/22 03:37:55;;;;;;;63.10;20.23;;;13.90;99.90;;;;;;6216866;22;20368;-92
2023/09/22 03:40:31;;;;;;;44.22;18.17;;;13.90;99.90;;;;;;6218601;22;20360;-92
2023/09/22 03:42:58;;;;;;;97.33;21.90;;;14.00;99.90;;;;;;6216461;22;20443;-92
2023/09/22 03:45:23;;;;;;;60.42;19.92;;;13.90;99.90;;;;;;6218864;22;20384;-92
2023/09/22 03:47:49;;;;;;;47.77;18.50;;;14.10;99.90;;;;;;6216693;22;20864;-92
2023/09/22 03:50:15;;;;;;;63.47;19.33;;;14.00;99.90;;;;;;6218146;22;20360;-93
2023/09/22 03:52:42;;;;;;;54.42;17.85;;;13.70;99.90;;;;;;6220243;22;20384;-92
2023/09/22 03:55:09;;;;;;;66.70;19.10;;;13.90;99.90;;;;;;6217408;22;20372;-93
2023/09/22 03:57:34;;;;;;;48.13;17.42;;;13.70;99.90;;;;;;6218336;22;20365;-92
2023/09/22 04:00:00;;;;;;;37.97;15.57;;;13.70;99.90;;;;;;6216620;22;20399;-92
2023/09/22 04:02:29;;;;;;;47.20;16.20;;;13.80;99.90;;;;;;6218569;22;20383;-92
2023/09/22 04:04:57;;;;;;;46.05;17.45;;;13.80;99.90;;;;;;6216021;22;20419;-91
2023/09/22 04:07:22;;;;;;;60.63;18.05;;;13.70;99.90;;;;;;6218416;22;20368;-93
2023/09/22 04:09:48;;;;;;;41.42;17.90;;;13.80;99.90;;;;;;6218958;22;20463;-92
2023/09/22 04:12:14;;;;;;;33.30;15.20;;;13.70;99.90;;;;;;6217705;22;20724;-92
2023/09/22 04:14:39;;;;;;;27.50;14.67;;;13.50;99.90;;;;;;6217468;22;20373;-92
2023/09/22 04:17:07;;;;;;;31.23;15.30;;;13.50;99.90;;;;;;6216572;22;20430;-91
2023/09/22 04:19:33;;;;;;;31.98;16.08;;;13.70;99.90;;;;;;6218191;22;20373;-92
2023/09/22 04:22:00;;;;;;;33.60;16.38;;;13.80;99.90;;;;;;6215702;22;20467;-92
2023/09/22 04:24:31;;;;;;;41.47;18.63;;;13.50;99.90;;;;;;6218077;22;20480;-94
2023/09/22 04:27:06;;;;;;;30.77;16.25;;;13.70;99.90;;;;;;6216274;22;20418;-93
2023/09/22 04:29:35;;;;;;;42.75;21.00;;;13.70;99.90;;;;;;6217373;22;20365;-92
2023/09/22 04:32:03;;;;;;;45.13;21.23;;;13.70;99.90;;;;;;6217555;22;20365;-91
2023/09/22 04:34:28;;;;;;;45.42;20.65;;;13.50;99.90;;;;;;6216424;22;20443;-93
2023/09/22 04:36:54;;;;;;;48.53;23.70;;;13.70;99.90;;;;;;6218161;22;20404;-92
2023/09/22 04:39:21;;;;;;;44.63;21.37;;;13.70;99.90;;;;;;6215547;22;20372;-92
2023/09/22 04:41:47;;;;;;;50.92;23.15;;;13.50;99.90;;;;;;6217992;22;20415;-92
2023/09/22 04:44:13;;;;;;;52.78;24.20;;;13.60;99.90;;;;;;6216064;22;20399;-92
2023/09/22 04:46:39;;;;;;;39.92;21.90;;;13.80;99.90;;;;;;6217932;22;20837;-91
2023/09/22 04:49:04;;;;;;;46.80;22.98;;;13.30;99.90;;;;;;6216665;22;20403;-92
2023/09/22 04:51:30;;;;;;;54.30;24.83;;;13.80;99.90;;;;;;6216705;22;20372;-92
2023/09/22 04:53:56;;;;;;;59.00;25.23;;;14.20;99.90;;;;;;6217857;22;20421;-92
2023/09/22 04:56:22;;;;;;;66.82;26.65;;;13.90;99.90;;;;;;6215655;22;20369;-92
2023/09/22 04:58:48;;;;;;;52.65;24.23;;;13.90;99.90;;;;;;6218016;22;20364;-93
2023/09/22 05:01:15;;;;;;;60.97;27.45;;;13.90;99.90;;;;;;6215969;22;20732;-93
2023/09/22 05:03:40;;;;;;;70.50;28.65;;;13.70;99.90;;;;;;6217262;22;20358;-93
2023/09/22 05:06:09;;;;;;;76.60;31.17;;;13.90;99.90;;;;;;6216361;22;20372;-93
2023/09/22 05:08:38;;;;;;;80.80;33.67;;;13.70;99.90;;;;;;6216809;22;20364;-93
2023/09/22 05:11:08;;;;;;;123.60;39.57;;;13.90;99.90;;;;;;6216889;22;20379;-93
2023/09/22 05:13:35;;;;;;;111.00;38.22;;;14.40;99.90;;;;;;6215875;22;20364;-93
2023/09/22 05:16:10;;;;;;;99.15;38.78;;;14.00;99.90;;;;;;6217427;22;20391;-91
2023/09/22 05:18:36;;;;;;;86.03;37.55;;;13.80;99.90;;;;;;6215420;22;20372;-91
2023/09/22 05:21:02;;;;;;;100.78;37.92;;;14.00;99.90;;;;;;6217271;22;20369;-92
2023/09/22 05:23:32;;;;;;;91.47;36.97;;;13.80;99.90;;;;;;6215754;22;20406;-92
2023/09/22 05:25:59;;;;;;;83.75;36.00;;;14.00;99.90;;;;;;6216564;22;20940;-91
2023/09/22 05:28:25;;;;;;;67.63;33.13;;;14.10;99.90;;;;;;6216917;22;20363;-93
2023/09/22 05:30:50;;;;;;;69.53;32.20;;;13.90;99.90;;;;;;6215762;22;20408;-93
2023/09/22 05:33:16;;;;;;;75.68;32.03;;;13.80;99.90;;;;;;6217208;22;20371;-93
2023/09/22 05:35:42;;;;;;;67.47;31.00;;;14.00;99.90;;;;;;6215123;22;20853;-94
2023/09/22 05:38:09;;;;;;;66.47;30.47;;;14.30;99.90;;;;;;6217235;22;20372;-93
2023/09/22 05:40:35;;;;;;;74.85;30.77;;;13.70;99.90;;;;;;6215495;22;20361;-93
2023/09/22 05:43:04;;;;;;;63.22;29.67;;;14.10;99.90;;;;;;6216952;22;20430;-92
2023/09/22 05:45:30;;;;;;;60.80;29.55;;;13.70;99.90;;;;;;6216162;22;20430;-92
2023/09/22 05:47:56;;;;;;;59.25;28.25;;;13.90;99.90;;;;;;6215330;22;20365;-92
2023/09/22 05:50:23;;;;;;;57.40;28.48;;;13.80;99.90;;;;;;6216927;22;20426;-93
2023/09/22 05:52:52;;;;;;;55.53;27.98;;;13.90;99.90;;;;;;6215612;22;20552;-93
2023/09/22 05:55:19;;;;;;;62.10;29.23;;;13.80;99.90;;;;;;6217961;22;20368;-93
2023/09/22 05:57:45;;;;;;;53.28;28.17;;;14.10;99.90;;;;;;6214987;22;20460;-92
2023/09/22 06:00:26;;;;;;;59.97;30.10;;;14.00;99.90;;;;;;6242242;22;20368;-93
2023/09/22 06:02:52;;;;;;;72.22;31.00;;;13.70;99.90;;;;;;6216403;22;20365;-93
2023/09/22 06:05:22;;;;;;;64.53;30.27;;;14.00;99.90;;;;;;6215451;22;20974;-92
2023/09/22 06:07:49;;;;;;;83.45;34.13;;;13.60;99.90;;;;;;6217259;22;20472;-93
2023/09/22 06:10:15;;;;;;;73.53;32.97;;;13.90;99.90;;;;;;6214904;22;20371;-92
2023/09/22 06:12:41;;;;;;;70.78;32.53;;;13.90;99.90;;;;;;6217097;22;20360;-93
2023/09/22 06:15:09;;;;;;;62.33;31.23;;;13.90;99.90;;;;;;6214560;22;20540;-93
2023/09/22 06:17:36;;;;;;;73.70;33.17;;;13.60;99.90;;;;;;6216641;22;20384;-93
2023/09/22 06:20:13;;;;;;;82.35;34.10;;;13.50;99.90;;;;;;6216124;22;20464;-93
2023/09/22 06:22:42;;;;;;;75.30;35.00;;;13.60;99.90;;;;;;6215356;22;20376;-93
2023/09/22 06:25:08;;;;;;;75.33;33.97;;;13.50;99.90;;;;;;6216657;22;20396;-94
2023/09/22 06:27:34;;;;;;;70.77;32.63;;;13.60;99.90;;;;;;6214618;22;20403;-94
2023/09/22 06:30:01;;;;;;;78.73;34.37;;;13.80;99.90;;;;;;6216733;22;20372;-94
2023/09/22 06:32:27;;;;;;;73.90;33.95;;;13.90;99.90;;;;;;6214928;22;20383;-94
2023/09/22 06:34:53;;;;;;;74.65;33.67;;;13.80;99.90;;;;;;6216761;22;20395;-94
2023/09/22 06:37:19;;;;;;;76.75;33.08;;;13.70;99.90;;;;;;6215816;22;20963;-92
2023/09/22 06:39:46;;;;;;;74.45;34.28;;;14.00;99.90;;;;;;6215380;22;20366;-93
2023/09/22 06:42:12;;;;;;;77.65;34.50;;;14.10;99.90;;;;;;6216693;22;20776;-94
2023/09/22 06:44:40;;;;;;;77.20;33.85;;;14.10;99.90;;;;;;6214728;22;20388;-93
2023/09/22 06:47:05;;;;;;;71.33;32.53;;;13.90;99.90;;;;;;6217105;22;20454;-92
2023/09/22 06:49:35;;;;;;;62.70;32.20;;;14.30;99.90;;;;;;6214785;22;20463;-93
2023/09/22 06:52:01;;;;;;;62.55;31.70;;;14.10;99.90;;;;;;6216682;22;20709;-91
2023/09/22 06:54:26;;;;;;;75.73;32.83;;;14.40;99.90;;;;;;6243085;22;20447;-93
2023/09/22 06:56:54;;;;;;;60.20;30.70;;;14.70;99.90;;;;;;6216097;22;20794;-92
2023/09/22 06:59:22;;;;;;;61.40;31.35;;;14.30;99.90;;;;;;6215593;22;20365;-93
2023/09/22 07:01:48;;;;;;;65.30;31.53;;;14.20;99.90;;;;;;6215130;22;20365;-94
2023/09/22 07:04:14;;;;;;;67.97;31.40;;;14.40;99.90;;;;;;6216789;22;20463;-95
2023/09/22 07:06:41;;;;;;;54.47;30.37;;;14.30;99.90;;;;;;6216791;22;20431;-92
2023/09/22 07:09:11;;;;;;;58.42;30.88;;;14.30;99.90;;;;;;6216604;22;20376;-93
2023/09/22 07:11:40;;;;;;;56.55;30.58;;;14.50;99.90;;;;;;6214876;22;20450;-91
2023/09/22 07:14:07;;;;;;;49.40;29.35;;;14.40;99.90;;;;;;6216760;22;20365;-94
2023/09/22 07:16:33;;;;;;;50.42;29.17;;;14.50;99.90;;;;;;6216110;22;20372;-94
2023/09/22 07:18:59;;;;;;;52.70;28.90;;;14.40;99.90;;;;;;6215145;22;20403;-94
2023/09/22 07:21:25;;;;;;;42.47;26.45;;;14.20;99.90;;;;;;6216293;22;20833;-92
2023/09/22 07:23:51;;;;;;;52.67;28.77;;;13.80;99.90;;;;;;6215129;22;20418;-94
2023/09/22 07:26:19;;;;;;;53.40;28.93;;;14.40;99.90;;;;;;6217104;22;20414;-95
2023/09/22 07:28:45;;;;;;;45.97;27.40;;;14.30;99.90;;;;;;6215240;22;20368;-94
2023/09/22 07:31:12;;;;;;;44.85;26.88;;;14.20;99.90;;;;;;6217318;22;20667;-92
2023/09/22 07:33:39;;;;;;;52.33;27.98;;;14.30;99.90;;;;;;6214781;22;20375;-93
2023/09/22 07:36:07;;;;;;;52.47;28.05;;;14.40;99.90;;;;;;6215819;22;20785;-94
2023/09/22 07:38:33;;;;;;;52.53;28.33;;;14.20;99.90;;;;;;6215983;22;20364;-94
2023/09/22 07:40:59;;;;;;;48.67;27.10;;;14.20;99.90;;;;;;6214712;22;20387;-93
2023/09/22 07:43:29;;;;;;;54.37;27.60;;;13.90;99.90;;;;;;6216780;22;20372;-93
2023/09/22 07:45:55;;;;;;;41.92;24.85;;;14.30;99.90;;;;;;6214192;22;20376;-92
2023/09/22 07:48:21;;;;;;;42.13;25.02;;;14.40;99.90;;;;;;6216503;22;20443;-93
2023/09/22 07:50:47;;;;;;;44.40;25.37;;;14.60;99.90;;;;;;6214189;22;20398;-92
2023/09/22 07:53:12;;;;;;;43.17;25.70;;;14.60;99.90;;;;;;6216667;22;20364;-94
2023/09/22 07:55:38;;;;;;;38.75;23.30;;;14.50;99.90;;;;;;6215901;22;20451;-94
2023/09/22 07:58:04;;;;;;;34.90;22.87;;;14.40;99.90;;;;;;6215084;22;20507;-91
2023/09/22 08:00:30;;;;;;;31.33;21.13;;;14.60;99.90;;;;;;6216068;22;20380;-94
2023/09/22 08:02:59;;;;;;;30.77;20.93;;;15.10;99.90;;;;;;6214392;22;21415;-92
2023/09/22 08:05:25;;;;;;;29.73;20.90;;;14.50;99.90;;;;;;6216289;22;20461;-92
2023/09/22 08:07:50;;;;;;;27.45;19.35;;;14.90;99.90;;;;;;6214427;22;20368;-95
2023/09/22 08:10:22;;;;;;;25.37;18.70;;;14.90;99.90;;;;;;6216538;22;20383;-93
2023/09/22 08:12:49;;;;;;;26.23;19.13;;;14.90;99.90;;;;;;6217269;22;20393;-93
2023/09/22 08:15:15;;;;;;;27.42;19.48;;;15.20;99.90;;;;;;6217147;22;20944;-91
2023/09/22 08:17:46;;;;;;;24.50;18.93;;;15.00;99.90;;;;;;6217637;22;20966;-92
2023/09/22 08:20:12;;;;;;;22.15;17.30;;;15.10;99.90;;;;;;6216483;22;20562;-91
2023/09/22 08:22:40;;;;;;;23.13;17.85;;;15.40;99.90;;;;;;6220088;22;20383;-93
2023/09/22 08:25:08;;;;;;;21.08;16.17;;;15.30;99.90;;;;;;6217416;22;20400;-94
2023/09/22 08:27:38;;;;;;;19.75;15.88;;;15.20;99.90;;;;;;6218542;22;20365;-92
2023/09/22 08:30:09;;;;;;;20.52;16.20;;;15.20;99.90;;;;;;6216149;22;20474;-93
2023/09/22 08:32:41;;;;;;;20.45;16.80;;;15.20;99.90;;;;;;6217865;22;20724;-93
2023/09/22 08:35:12;;;;;;;18.87;16.57;;;15.30;99.90;;;;;;6217649;22;20391;-93
2023/09/22 08:37:41;;;;;;;17.33;14.15;;;15.90;99.90;;;;;;6217606;22;20368;-91
2023/09/22 08:40:09;;;;;;;18.30;15.38;;;15.60;99.90;;;;;;6218025;22;20419;-93
2023/09/22 08:42:35;;;;;;;18.98;16.67;;;15.40;99.90;;;;;;6215822;22;20369;-92
2023/09/22 08:45:02;;;;;;;17.05;14.63;;;15.80;99.90;;;;;;6217831;22;20414;-93
2023/09/22 08:47:28;;;;;;;17.23;13.77;;;15.70;99.90;;;;;;6215716;22;20428;-92
2023/09/22 08:49:53;;;;;;;14.85;13.25;;;15.70;99.90;;;;;;6217467;22;20797;-93
2023/09/22 08:52:22;;;;;;;14.90;12.40;;;16.00;99.90;;;;;;6218241;22;20368;-93
2023/09/22 08:54:48;;;;;;;16.13;14.45;;;16.00;99.90;;;;;;6218058;22;21246;-94
2023/09/22 08:57:35;;;;;;;15.68;11.77;;;15.80;99.90;;;;;;6218720;22;20361;-94
2023/09/22 09:00:01;;;;;;;12.82;11.48;;;16.20;99.90;;;;;;6215535;22;20365;-95
2023/09/22 09:02:27;;;;;;;12.73;11.10;;;16.10;99.90;;;;;;6223207;22;20376;-93
2023/09/22 09:04:53;;;;;;;11.98;10.70;;;16.10;99.90;;;;;;6217995;22;20446;-93
2023/09/22 09:07:28;;;;;;;12.65;10.50;;;16.30;99.90;;;;;;6228570;22;20395;-94
2023/09/22 09:09:55;;;;;;;11.93;9.50;;;16.40;99.90;;;;;;6220438;22;20387;-95
2023/09/22 09:12:33;;;;;;;11.97;10.60;;;16.60;99.90;;;;;;6224224;22;20778;-96
2023/09/22 09:15:05;;;;;;;9.50;8.55;;;16.30;99.90;;;;;;6223675;22;20391;-95
2023/09/22 09:17:31;;;;;;;10.32;9.00;;;16.40;99.90;;;;;;6223232;22;20379;-96
2023/09/22 09:20:05;;;;;;;9.23;8.32;;;16.40;99.90;;;;;;6229195;22;20361;-96
2023/09/22 09:22:54;;;;;;;9.65;8.10;;;16.50;99.90;;;;;;6226862;22;20360;-94
2023/09/22 09:25:19;;;;;;;7.90;7.03;;;17.00;99.90;;;;;;6227399;23;20775;-93
2023/09/22 09:28:03;;;;;;;8.30;7.50;;;16.80;99.90;;;;;;6191722;23;20451;-95
2023/09/22 09:39:12;;;;;;;4.82;4.10;;;17.30;99.90;;;;;;6243205;22;20377;-95
2023/09/22 09:41:57;;;;;;;4.03;3.03;;;17.40;99.90;;;;;;6233782;23;20374;-92
2023/09/22 10:08:39;;;;;;;1.58;0.40;;;18.70;99.90;;;;;;6239231;22;20397;-95
2023/09/22 10:12:32;;;;;;;2.55;0.65;;;18.80;99.90;;;;;;6171549;23;20381;-96
2023/09/22 10:35:53;;;;;;;1.65;0.50;;;18.90;99.90;;;;;;6221884;22;20387;-96
2023/09/22 10:38:25;;;;;;;2.00;0.50;;;19.30;99.90;;;;;;6207455;23;20386;-95
2023/09/22 10:41:19;;;;;;;1.85;0.50;;;19.10;99.90;;;;;;6173597;23;20384;-95
2023/09/22 10:44:08;;;;;;;1.60;0.50;;;18.90;99.90;;;;;;6180802;23;20406;-95
2023/09/22 10:46:34;;;;;;;2.30;0.60;;;19.00;99.90;;;;;;6214174;23;20362;-95
2023/09/22 10:49:00;;;;;;;2.27;0.70;;;18.40;99.90;;;;;;6218724;23;20374;-96
2023/09/22 10:51:43;;;;;;;2.35;0.80;;;17.90;99.90;;;;;;6216795;23;20366;-94
2023/09/22 10:54:24;;;;;;;2.47;0.85;;;18.20;99.90;;;;;;6216399;22;20694;-94
2023/09/22 10:56:49;;;;;;;2.67;0.70;;;18.00;99.90;;;;;;6215394;23;20432;-94
2023/09/22 10:59:16;;;;;;;2.07;0.87;;;18.00;99.90;;;;;;6212334;23;20893;-95
2023/09/22 11:01:45;;;;;;;1.60;0.50;;;18.30;99.90;;;;;;6213692;23;20878;-95
2023/09/22 11:04:11;;;;;;;2.67;0.70;;;18.60;99.90;;;;;;6209803;23;20531;-93
2023/09/22 11:07:13;;;;;;;;;;;;;;;;;;;;;
2023/09/22 11:09:45;;;;;;;1.65;0.60;;;18.90;99.90;;;;;;6219946;23;20374;-95
2023/09/22 11:12:27;;;;;;;1.60;0.60;;;19.00;99.90;;;;;;6226285;23;20386;-95
2023/09/22 11:15:14;;;;;;;2.55;0.90;;;19.20;99.90;;;;;;6215188;23;20420;-95
2023/09/22 11:18:01;;;;;;;1.70;0.82;;;19.60;99.90;;;;;;6226031;23;20382;-95
2023/09/22 11:23:58;;;;;;;2.13;1.00;;;19.20;99.90;;;;;;6184485;23;20407;-95
2023/09/22 11:26:25;;;;;;;2.65;0.90;;;18.90;99.90;;;;;;6150551;23;20420;-95
2023/09/22 11:28:52;;;;;;;1.48;0.80;;;18.90;99.90;;;;;;6152453;23;20369;-93
2023/09/22 11:31:23;;;;;;;1.98;0.70;;;18.90;99.90;;;;;;6151541;23;20452;-95
2023/09/22 11:34:03;;;;;;;1.67;0.70;;;19.00;99.90;;;;;;6159700;23;20373;-96
2023/09/22 11:36:54;;;;;;;2.45;0.73;;;19.30;99.90;;;;;;6137062;23;20373;-96
2023/09/22 11:39:29;;;;;;;1.20;0.60;;;19.90;99.90;;;;;;6136648;23;20369;-95
2023/09/22 11:41:58;;;;;;;2.67;0.40;;;20.10;99.90;;;;;;6130403;23;20377;-95
2023/09/22 11:44:24;;;;;;;1.35;0.38;;;20.40;98.20;;;;;;6128503;23;20393;-94
2023/09/22 11:47:31;;;;;;;1.17;0.40;;;20.90;93.40;;;;;;6162152;23;20377;-95
2023/09/22 11:50:00;;;;;;;1.93;0.53;;;20.60;93.40;;;;;;6137126;23;20391;-94
2023/09/22 11:52:31;;;;;;;2.15;0.50;;;20.50;97.20;;;;;;6158174;23;20438;-91
2023/09/22 11:54:57;;;;;;;2.03;0.40;;;20.10;95.30;;;;;;6160240;23;20786;-91
2023/09/22 11:57:23;;;;;;;2.38;0.40;;;20.20;93.80;;;;;;6157534;23;20478;-94
2023/09/22 12:00:01;;;;;;;2.40;0.38;;;19.90;88.50;;;;;;6159584;23;20710;-91
2023/09/22 12:02:29;;;;;;;2.67;0.47;;;20.10;85.60;;;;;;6157654;23;20359;-92
2023/09/22 12:05:03;;;;;;;1.40;0.40;;;20.00;92.90;;;;;;6159597;23;20407;-96
2023/09/22 12:07:34;;;;;;;2.22;0.50;;;19.80;92.80;;;;;;6165599;23;20380;-94
2023/09/22 12:10:03;;;;;;;2.97;0.40;;;20.10;99.90;;;;;;6161800;23;20364;-93
2023/09/22 12:12:29;;;;;;;1.37;0.30;;;20.70;98.10;;;;;;6160065;23;20692;-92
2023/09/22 12:14:55;;;;;;;1.63;0.30;;;20.90;87.10;;;;;;6160358;23;20458;-91
2023/09/22 12:17:21;;;;;;;1.20;0.50;;;21.10;81.90;;;;;;6159174;23;20378;-91
2023/09/22 12:19:47;;;;;;;1.00;0.30;;;21.00;90.00;;;;;;6156979;23;20367;-93
2023/09/22 12:22:12;;;;;;;1.50;0.50;;;20.80;91.90;;;;;;6160671;23;20371;-92
2023/09/22 12:24:38;;;;;;;1.60;0.40;;;20.60;91.30;;;;;;6156318;23;20391;-91
2023/09/22 12:27:04;;;;;;;2.45;0.50;;;20.30;96.80;;;;;;6159569;23;20395;-94
2023/09/22 12:29:31;;;;;;;1.93;0.47;;;20.10;95.50;;;;;;6157541;23;20367;-92
2023/09/22 12:31:58;;;;;;;1.80;0.32;;;20.10;97.70;;;;;;6160327;23;20379;-94
2023/09/22 12:34:23;;;;;;;1.88;0.40;;;20.20;98.50;;;;;;6160311;23;20384;-95
2023/09/22 12:36:49;;;;;;;2.03;0.37;;;21.10;96.60;;;;;;6159820;23;20375;-95
2023/09/22 12:39:16;;;;;;;1.70;0.30;;;21.40;90.70;;;;;;6158146;23;20418;-91
2023/09/22 12:41:41;;;;;;;1.75;0.60;;;21.60;82.70;;;;;;6158544;23;20422;-94
2023/09/22 12:44:07;;;;;;;2.70;0.40;;;21.50;86.20;;;;;;6158731;23;20740;-90
2023/09/22 12:46:32;;;;;;;2.38;0.57;;;20.90;92.50;;;;;;6157129;23;20847;-93
2023/09/22 12:48:59;;;;;;;1.90;0.50;;;20.30;92.80;;;;;;6159375;23;20721;-93
2023/09/22 12:51:24;;;;;;;1.45;0.60;;;19.70;98.10;;;;;;6158249;23;20434;-92
2023/09/22 12:53:50;;;;;;;2.60;0.70;;;19.90;99.90;;;;;;6159327;23;20376;-92
2023/09/22 12:56:18;;;;;;;1.17;0.47;;;19.20;99.90;;;;;;6159697;23;20367;-95
2023/09/22 12:58:47;;;;;;;2.15;0.60;;;18.60;99.90;;;;;;6159685;23;20379;-94
2023/09/22 13:01:16;;;;;;;1.80;0.60;;;18.40;99.90;;;;;;6157856;23;20371;-94
2023/09/22 13:03:41;;;;;;;2.60;0.50;;;19.20;99.90;;;;;;6158753;23;20367;-93
2023/09/22 13:06:07;;;;;;;1.30;0.20;;;18.70;99.90;;;;;;6158302;23;20359;-94
2023/09/22 13:08:33;;;;;;;1.42;0.22;;;18.40;99.90;;;;;;6157501;23;20892;-91
2023/09/22 13:10:59;;;;;;;0.77;0.17;;;18.20;99.90;;;;;;6160265;23;20810;-94
2023/09/22 13:13:25;;;;;;;0.98;0.10;;;18.10;99.90;;;;;;6157449;23;20364;-94
2023/09/22 13:15:51;;;;;;;1.90;0.20;;;18.00;99.90;;;;;;6157835;23;20372;-93
2023/09/22 13:18:20;;;;;;;1.33;0.10;;;18.00;99.90;;;;;;6155584;23;20372;-94
2023/09/22 13:20:46;;;;;;;1.13;0.10;;;18.00;99.90;;;;;;6158677;23;20912;-92
2023/09/22 13:23:15;;;;;;;1.00;0.10;;;18.20;99.90;;;;;;6156085;23;20364;-95
2023/09/22 13:25:43;;;;;;;1.27;0.10;;;18.10;99.90;;;;;;6157899;23;20419;-91
2023/09/22 13:28:13;;;;;;;1.33;0.30;;;18.00;99.90;;;;;;6157262;23;20363;-92
2023/09/22 13:30:52;;;;;;;1.60;0.20;;;17.60;99.90;;;;;;6156723;23;20448;-91
2023/09/22 13:33:20;;;;;;;1.40;0.10;;;17.40;99.90;;;;;;6157917;23;20433;-94
2023/09/22 13:35:48;;;;;;;0.70;0.20;;;17.70;99.90;;;;;;6157013;23;20387;-91